Terminal Aerodrome Forecast
Issued by NWS Charleston, WV

Current Version | Previous Version | Text Only | Print | Product List | Glossary Off
Versions: 1 2 3 4 5 6 7 8 9 10 11 12 13 14 15 16 17 18 19 20 21 22 23 24 25 26

000
FTUS41 KRLX 300800 AAA
TAFCRW
TAF AMD
KCRW 300859Z 3009/3106 24009G18KT P6SM -RA OVC028
     FM301100 26007KT P6SM OVC026
     FM301500 28008KT P6SM SCT028
     FM301800 28012G18KT P6SM SCT045
     FM302300 27007KT P6SM SCT200=

USA.gov is the U.S. government's official web portal to all federal, state and local government web resources and services.